sensor_id;sensor_type;location;lat;lon;timestamp;P1;durP1;ratioP1;P2;durP2;ratioP2
10637;SDS011;47007;49.252;8.904;2023-06-22T00:00:37;5.65;;;4.90;;
10637;SDS011;47007;49.252;8.904;2023-06-22T00:01:20;6.22;;;4.93;;
10637;SDS011;47007;49.252;8.904;2023-06-22T00:02:04;4.63;;;4.22;;
10637;SDS011;47007;49.252;8.904;2023-06-22T00:02:46;5.13;;;4.72;;
10637;SDS011;47007;49.252;8.904;2023-06-22T00:03:27;5.18;;;4.78;;
10637;SDS011;47007;49.252;8.904;2023-06-22T00:04:09;4.63;;;4.30;;
10637;SDS011;47007;49.252;8.904;2023-06-22T00:04:51;4.80;;;4.40;;
10637;SDS011;47007;49.252;8.904;2023-06-22T00:05:33;4.65;;;4.25;;
10637;SDS011;47007;49.252;8.904;2023-06-22T00:06:15;4.38;;;4.07;;
10637;SDS011;47007;49.252;8.904;2023-06-22T00:06:59;4.32;;;4.03;;
10637;SDS011;47007;49.252;8.904;2023-06-22T00:07:41;4.70;;;4.30;;
10637;SDS011;47007;49.252;8.904;2023-06-22T00:08:23;4.97;;;3.83;;
10637;SDS011;47007;49.252;8.904;2023-06-22T00:09:04;4.35;;;4.05;;
10637;SDS011;47007;49.252;8.904;2023-06-22T00:09:48;4.75;;;4.35;;
10637;SDS011;47007;49.252;8.904;2023-06-22T00:10:29;4.88;;;4.50;;
10637;SDS011;47007;49.252;8.904;2023-06-22T00:11:11;5.13;;;4.72;;
10637;SDS011;47007;49.252;8.904;2023-06-22T00:11:53;4.70;;;4.30;;
10637;SDS011;47007;49.252;8.904;2023-06-22T00:12:35;4.40;;;4.10;;
10637;SDS011;47007;49.252;8.904;2023-06-22T00:13:17;4.57;;;4.25;;
10637;SDS011;47007;49.252;8.904;2023-06-22T00:13:59;5.00;;;4.60;;
10637;SDS011;47007;49.252;8.904;2023-06-22T00:14:41;4.55;;;4.25;;
10637;SDS011;47007;49.252;8.904;2023-06-22T00:15:23;4.28;;;3.78;;
10637;SDS011;47007;49.252;8.904;2023-06-22T00:16:04;4.72;;;4.43;;
10637;SDS011;47007;49.252;8.904;2023-06-22T00:16:46;4.38;;;4.05;;
10637;SDS011;47007;49.252;8.904;2023-06-22T00:17:29;4.50;;;4.20;;
10637;SDS011;47007;49.252;8.904;2023-06-22T00:18:11;4.32;;;3.92;;
10637;SDS011;47007;49.252;8.904;2023-06-22T00:18:54;4.38;;;4.07;;
10637;SDS011;47007;49.252;8.904;2023-06-22T00:19:36;4.03;;;3.72;;
10637;SDS011;47007;49.252;8.904;2023-06-22T00:20:21;4.55;;;4.22;;
10637;SDS011;47007;49.252;8.904;2023-06-22T00:21:04;4.90;;;4.50;;
10637;SDS011;47007;49.252;8.904;2023-06-22T00:21:46;5.15;;;4.75;;
10637;SDS011;47007;49.252;8.904;2023-06-22T00:22:28;4.63;;;4.32;;
10637;SDS011;47007;49.252;8.904;2023-06-22T00:23:10;5.47;;;4.45;;
10637;SDS011;47007;49.252;8.904;2023-06-22T00:23:52;5.05;;;4.65;;
10637;SDS011;47007;49.252;8.904;2023-06-22T00:24:34;4.88;;;4.15;;
10637;SDS011;47007;49.252;8.904;2023-06-22T00:25:16;4.68;;;4.20;;
10637;SDS011;47007;49.252;8.904;2023-06-22T00:25:57;5.18;;;4.80;;
10637;SDS011;47007;49.252;8.904;2023-06-22T00:26:39;4.10;;;3.80;;
10637;SDS011;47007;49.252;8.904;2023-06-22T00:27:23;4.55;;;4.15;;
10637;SDS011;47007;49.252;8.904;2023-06-22T00:28:05;4.40;;;4.00;;
10637;SDS011;47007;49.252;8.904;2023-06-22T00:28:49;4.03;;;3.72;;
10637;SDS011;47007;49.252;8.904;2023-06-22T00:29:31;4.63;;;4.22;;
10637;SDS011;47007;49.252;8.904;2023-06-22T00:30:14;5.07;;;4.68;;
10637;SDS011;47007;49.252;8.904;2023-06-22T00:30:57;5.18;;;4.13;;
10637;SDS011;47007;49.252;8.904;2023-06-22T00:31:39;4.55;;;4.18;;
10637;SDS011;47007;49.252;8.904;2023-06-22T00:32:21;4.90;;;4.43;;
10637;SDS011;47007;49.252;8.904;2023-06-22T00:33:03;4.45;;;4.15;;
10637;SDS011;47007;49.252;8.904;2023-06-22T00:33:49;4.72;;;4.32;;
10637;SDS011;47007;49.252;8.904;2023-06-22T00:34:33;4.65;;;4.22;;
10637;SDS011;47007;49.252;8.904;2023-06-22T00:35:15;4.70;;;4.38;;
10637;SDS011;47007;49.252;8.904;2023-06-22T00:35:57;5.13;;;4.13;;
10637;SDS011;47007;49.252;8.904;2023-06-22T00:36:38;4.75;;;4.45;;
10637;SDS011;47007;49.252;8.904;2023-06-22T00:37:22;5.03;;;4.63;;
10637;SDS011;47007;49.252;8.904;2023-06-22T00:38:07;4.70;;;4.30;;
10637;SDS011;47007;49.252;8.904;2023-06-22T00:38:50;4.40;;;4.10;;
10637;SDS011;47007;49.252;8.904;2023-06-22T00:39:32;4.78;;;4.38;;
10637;SDS011;47007;49.252;8.904;2023-06-22T00:40:14;4.88;;;4.40;;
10637;SDS011;47007;49.252;8.904;2023-06-22T00:41:03;6.05;;;4.45;;
10637;SDS011;47007;49.252;8.904;2023-06-22T00:41:44;4.63;;;4.22;;
10637;SDS011;47007;49.252;8.904;2023-06-22T00:42:27;4.65;;;4.25;;
10637;SDS011;47007;49.252;8.904;2023-06-22T00:43:08;4.97;;;4.57;;
10637;SDS011;47007;49.252;8.904;2023-06-22T00:43:50;4.40;;;4.07;;
10637;SDS011;47007;49.252;8.904;2023-06-22T00:44:32;5.07;;;4.68;;
10637;SDS011;47007;49.252;8.904;2023-06-22T00:45:14;4.82;;;4.40;;
10637;SDS011;47007;49.252;8.904;2023-06-22T00:45:57;5.00;;;4.50;;
10637;SDS011;47007;49.252;8.904;2023-06-22T00:46:40;4.97;;;4.57;;
10637;SDS011;47007;49.252;8.904;2023-06-22T00:47:22;4.90;;;4.50;;
10637;SDS011;47007;49.252;8.904;2023-06-22T00:48:05;4.63;;;4.20;;
10637;SDS011;47007;49.252;8.904;2023-06-22T00:48:49;4.55;;;4.18;;
10637;SDS011;47007;49.252;8.904;2023-06-22T00:49:33;5.82;;;5.18;;
10637;SDS011;47007;49.252;8.904;2023-06-22T00:50:20;5.80;;;5.15;;
10637;SDS011;47007;49.252;8.904;2023-06-22T00:51:03;6.75;;;5.22;;
10637;SDS011;47007;49.252;8.904;2023-06-22T00:51:45;5.38;;;4.82;;
10637;SDS011;47007;49.252;8.904;2023-06-22T00:52:27;5.40;;;4.90;;
10637;SDS011;47007;49.252;8.904;2023-06-22T00:53:11;5.22;;;4.72;;
10637;SDS011;47007;49.252;8.904;2023-06-22T00:53:53;6.00;;;5.40;;
10637;SDS011;47007;49.252;8.904;2023-06-22T00:54:36;6.00;;;5.50;;
10637;SDS011;47007;49.252;8.904;2023-06-22T00:55:18;6.82;;;5.00;;
10637;SDS011;47007;49.252;8.904;2023-06-22T00:56:04;5.80;;;5.40;;
10637;SDS011;47007;49.252;8.904;2023-06-22T00:56:49;5.05;;;4.55;;
10637;SDS011;47007;49.252;8.904;2023-06-22T00:57:33;5.53;;;5.03;;
10637;SDS011;47007;49.252;8.904;2023-06-22T00:58:18;5.32;;;4.82;;
10637;SDS011;47007;49.252;8.904;2023-06-22T00:59:06;5.72;;;5.22;;
10637;SDS011;47007;49.252;8.904;2023-06-22T00:59:49;4.93;;;4.63;;
10637;SDS011;47007;49.252;8.904;2023-06-22T01:00:31;5.75;;;4.63;;
10637;SDS011;47007;49.252;8.904;2023-06-22T01:01:14;5.45;;;4.95;;
10637;SDS011;47007;49.252;8.904;2023-06-22T01:01:56;6.20;;;5.70;;
10637;SDS011;47007;49.252;8.904;2023-06-22T01:02:39;5.20;;;4.80;;
10637;SDS011;47007;49.252;8.904;2023-06-22T01:03:22;7.03;;;5.50;;
10637;SDS011;47007;49.252;8.904;2023-06-22T01:04:04;5.85;;;5.28;;
10637;SDS011;47007;49.252;8.904;2023-06-22T01:04:47;5.43;;;4.93;;
10637;SDS011;47007;49.252;8.904;2023-06-22T01:05:29;5.45;;;4.90;;
10637;SDS011;47007;49.252;8.904;2023-06-22T01:06:14;5.05;;;4.63;;
10637;SDS011;47007;49.252;8.904;2023-06-22T01:09:22;7.03;;;5.28;;
10637;SDS011;47007;49.252;8.904;2023-06-22T01:12:04;7.63;;;5.75;;
10637;SDS011;47007;49.252;8.904;2023-06-22T01:12:50;6.18;;;5.53;;
10637;SDS011;47007;49.252;8.904;2023-06-22T01:13:50;6.90;;;6.25;;
10637;SDS011;47007;49.252;8.904;2023-06-22T01:14:44;6.97;;;6.38;;
10637;SDS011;47007;49.252;8.904;2023-06-22T01:15:53;7.03;;;6.35;;
10637;SDS011;47007;49.252;8.904;2023-06-22T01:16:41;7.43;;;6.25;;
10637;SDS011;47007;49.252;8.904;2023-06-22T01:17:28;6.85;;;6.20;;
10637;SDS011;47007;49.252;8.904;2023-06-22T01:18:12;8.63;;;6.35;;
10637;SDS011;47007;49.252;8.904;2023-06-22T01:18:57;7.03;;;6.43;;
10637;SDS011;47007;49.252;8.904;2023-06-22T01:19:46;7.10;;;6.47;;
10637;SDS011;47007;49.252;8.904;2023-06-22T01:20:34;6.72;;;6.07;;
10637;SDS011;47007;49.252;8.904;2023-06-22T01:21:20;6.40;;;5.80;;
10637;SDS011;47007;49.252;8.904;2023-06-22T01:22:05;6.13;;;5.63;;
10637;SDS011;47007;49.252;8.904;2023-06-22T01:23:46;7.20;;;5.82;;
10637;SDS011;47007;49.252;8.904;2023-06-22T01:24:55;5.72;;;5.32;;
10637;SDS011;47007;49.252;8.904;2023-06-22T01:28:02;6.15;;;5.57;;
10637;SDS011;47007;49.252;8.904;2023-06-22T01:29:06;6.20;;;5.70;;
10637;SDS011;47007;49.252;8.904;2023-06-22T01:29:55;6.55;;;6.00;;
10637;SDS011;47007;49.252;8.904;2023-06-22T01:30:42;5.63;;;5.20;;
10637;SDS011;47007;49.252;8.904;2023-06-22T01:31:27;5.97;;;5.47;;
10637;SDS011;47007;49.252;8.904;2023-06-22T01:32:11;5.72;;;5.22;;
10637;SDS011;47007;49.252;8.904;2023-06-22T01:32:54;7.10;;;5.05;;
10637;SDS011;47007;49.252;8.904;2023-06-22T01:33:41;5.70;;;5.18;;
10637;SDS011;47007;49.252;8.904;2023-06-22T01:34:24;5.63;;;5.22;;
10637;SDS011;47007;49.252;8.904;2023-06-22T01:35:07;6.03;;;5.50;;
10637;SDS011;47007;49.252;8.904;2023-06-22T01:35:51;5.72;;;5.15;;
10637;SDS011;47007;49.252;8.904;2023-06-22T01:36:33;6.70;;;5.28;;
10637;SDS011;47007;49.252;8.904;2023-06-22T01:37:17;6.10;;;5.45;;
10637;SDS011;47007;49.252;8.904;2023-06-22T01:38:05;5.40;;;5.00;;
10637;SDS011;47007;49.252;8.904;2023-06-22T01:38:48;5.65;;;5.15;;
10637;SDS011;47007;49.252;8.904;2023-06-22T01:39:33;6.22;;;5.72;;
10637;SDS011;47007;49.252;8.904;2023-06-22T01:40:15;5.85;;;5.35;;
10637;SDS011;47007;49.252;8.904;2023-06-22T01:41:01;6.00;;;5.50;;
10637;SDS011;47007;49.252;8.904;2023-06-22T01:41:44;6.03;;;5.43;;
10637;SDS011;47007;49.252;8.904;2023-06-22T01:42:28;6.07;;;5.57;;
10637;SDS011;47007;49.252;8.904;2023-06-22T01:43:10;9.40;;;5.80;;
10637;SDS011;47007;49.252;8.904;2023-06-22T01:43:53;6.78;;;6.15;;
10637;SDS011;47007;49.252;8.904;2023-06-22T01:44:36;6.50;;;5.90;;
10637;SDS011;47007;49.252;8.904;2023-06-22T01:45:19;6.25;;;5.68;;
10637;SDS011;47007;49.252;8.904;2023-06-22T01:46:04;5.90;;;5.50;;
10637;SDS011;47007;49.252;8.904;2023-06-22T01:46:46;6.55;;;5.68;;
10637;SDS011;47007;49.252;8.904;2023-06-22T01:47:31;6.38;;;5.82;;
10637;SDS011;47007;49.252;8.904;2023-06-22T01:48:15;6.82;;;6.25;;
10637;SDS011;47007;49.252;8.904;2023-06-22T01:49:00;6.50;;;6.00;;
10637;SDS011;47007;49.252;8.904;2023-06-22T01:49:43;7.22;;;6.20;;
10637;SDS011;47007;49.252;8.904;2023-06-22T01:50:27;6.65;;;6.05;;
10637;SDS011;47007;49.252;8.904;2023-06-22T01:51:10;6.03;;;5.45;;
10637;SDS011;47007;49.252;8.904;2023-06-22T01:51:53;6.30;;;5.78;;
10637;SDS011;47007;49.252;8.904;2023-06-22T01:52:35;6.10;;;5.60;;
10637;SDS011;47007;49.252;8.904;2023-06-22T01:53:17;5.95;;;5.50;;
10637;SDS011;47007;49.252;8.904;2023-06-22T01:53:59;5.93;;;5.43;;
10637;SDS011;47007;49.252;8.904;2023-06-22T01:54:41;6.10;;;5.53;;
10637;SDS011;47007;49.252;8.904;2023-06-22T01:55:22;6.30;;;5.80;;
10637;SDS011;47007;49.252;8.904;2023-06-22T01:56:04;6.65;;;6.05;;
10637;SDS011;47007;49.252;8.904;2023-06-22T01:56:46;5.63;;;5.15;;
10637;SDS011;47007;49.252;8.904;2023-06-22T01:57:28;5.55;;;5.15;;
10637;SDS011;47007;49.252;8.904;2023-06-22T01:58:10;6.43;;;5.93;;
10637;SDS011;47007;49.252;8.904;2023-06-22T01:59:49;6.38;;;5.78;;
10637;SDS011;47007;49.252;8.904;2023-06-22T02:00:40;6.05;;;5.65;;
10637;SDS011;47007;49.252;8.904;2023-06-22T02:01:35;6.30;;;5.75;;
10637;SDS011;47007;49.252;8.904;2023-06-22T02:02:27;6.05;;;5.55;;
10637;SDS011;47007;49.252;8.904;2023-06-22T02:03:19;6.18;;;5.68;;
10637;SDS011;47007;49.252;8.904;2023-06-22T02:04:11;5.80;;;5.30;;
10637;SDS011;47007;49.252;8.904;2023-06-22T02:04:59;6.65;;;5.97;;
10637;SDS011;47007;49.252;8.904;2023-06-22T02:05:50;6.68;;;5.97;;
10637;SDS011;47007;49.252;8.904;2023-06-22T02:06:37;5.45;;;4.95;;
10637;SDS011;47007;49.252;8.904;2023-06-22T02:07:21;6.07;;;5.68;;
10637;SDS011;47007;49.252;8.904;2023-06-22T02:08:07;6.80;;;6.10;;
10637;SDS011;47007;49.252;8.904;2023-06-22T02:08:53;5.65;;;5.25;;
10637;SDS011;47007;49.252;8.904;2023-06-22T02:09:38;6.13;;;5.63;;
10637;SDS011;47007;49.252;8.904;2023-06-22T02:10:28;6.15;;;5.55;;
10637;SDS011;47007;49.252;8.904;2023-06-22T02:11:11;6.68;;;6.07;;
10637;SDS011;47007;49.252;8.904;2023-06-22T02:12:00;6.10;;;5.60;;
10637;SDS011;47007;49.252;8.904;2023-06-22T02:12:43;6.38;;;5.78;;
10637;SDS011;47007;49.252;8.904;2023-06-22T02:13:26;5.85;;;5.35;;
10637;SDS011;47007;49.252;8.904;2023-06-22T02:14:08;6.22;;;5.72;;
10637;SDS011;47007;49.252;8.904;2023-06-22T02:14:53;8.25;;;5.65;;
10637;SDS011;47007;49.252;8.904;2023-06-22T02:15:35;6.32;;;5.72;;
10637;SDS011;47007;49.252;8.904;2023-06-22T02:16:18;6.18;;;5.68;;
10637;SDS011;47007;49.252;8.904;2023-06-22T02:17:00;6.07;;;5.57;;
10637;SDS011;47007;49.252;8.904;2023-06-22T02:17:42;6.30;;;5.70;;
10637;SDS011;47007;49.252;8.904;2023-06-22T02:18:27;6.47;;;5.97;;
10637;SDS011;47007;49.252;8.904;2023-06-22T02:19:09;5.95;;;5.45;;
10637;SDS011;47007;49.252;8.904;2023-06-22T02:19:51;6.13;;;5.63;;
10637;SDS011;47007;49.252;8.904;2023-06-22T02:20:32;6.18;;;5.57;;
10637;SDS011;47007;49.252;8.904;2023-06-22T02:21:18;6.32;;;5.72;;
10637;SDS011;47007;49.252;8.904;2023-06-22T02:22:00;7.20;;;6.15;;
10637;SDS011;47007;49.252;8.904;2023-06-22T02:22:45;6.70;;;6.03;;
10637;SDS011;47007;49.252;8.904;2023-06-22T02:23:27;5.80;;;5.40;;
10637;SDS011;47007;49.252;8.904;2023-06-22T02:24:09;7.47;;;6.55;;
10637;SDS011;47007;49.252;8.904;2023-06-22T02:24:51;6.60;;;5.88;;
10637;SDS011;47007;49.252;8.904;2023-06-22T02:25:34;6.55;;;6.05;;
10637;SDS011;47007;49.252;8.904;2023-06-22T02:26:17;6.35;;;5.85;;
10637;SDS011;47007;49.252;8.904;2023-06-22T02:26:59;7.45;;;6.85;;
10637;SDS011;47007;49.252;8.904;2023-06-22T02:27:42;7.18;;;6.47;;
10637;SDS011;47007;49.252;8.904;2023-06-22T02:28:24;7.20;;;6.50;;
10637;SDS011;47007;49.252;8.904;2023-06-22T02:29:08;6.07;;;5.57;;
10637;SDS011;47007;49.252;8.904;2023-06-22T02:29:50;7.10;;;6.40;;
10637;SDS011;47007;49.252;8.904;2023-06-22T02:30:32;6.72;;;6.13;;
10637;SDS011;47007;49.252;8.904;2023-06-22T02:31:13;6.72;;;6.13;;
10637;SDS011;47007;49.252;8.904;2023-06-22T02:31:55;7.07;;;6.38;;
10637;SDS011;47007;49.252;8.904;2023-06-22T02:32:40;6.65;;;6.13;;
10637;SDS011;47007;49.252;8.904;2023-06-22T02:33:23;7.35;;;6.55;;
10637;SDS011;47007;49.252;8.904;2023-06-22T02:34:05;6.90;;;6.30;;
10637;SDS011;47007;49.252;8.904;2023-06-22T02:34:46;7.13;;;6.43;;
10637;SDS011;47007;49.252;8.904;2023-06-22T02:35:30;6.40;;;5.75;;
10637;SDS011;47007;49.252;8.904;2023-06-22T02:36:20;5.97;;;5.43;;
10637;SDS011;47007;49.252;8.904;2023-06-22T02:37:03;5.82;;;5.32;;
10637;SDS011;47007;49.252;8.904;2023-06-22T02:37:46;5.78;;;5.15;;
10637;SDS011;47007;49.252;8.904;2023-06-22T02:38:28;6.65;;;6.05;;
10637;SDS011;47007;49.252;8.904;2023-06-22T02:39:14;7.88;;;5.82;;
10637;SDS011;47007;49.252;8.904;2023-06-22T02:39:57;8.65;;;5.80;;
10637;SDS011;47007;49.252;8.904;2023-06-22T02:40:42;6.38;;;5.78;;
10637;SDS011;47007;49.252;8.904;2023-06-22T02:41:24;7.55;;;5.93;;
10637;SDS011;47007;49.252;8.904;2023-06-22T02:42:06;6.65;;;6.05;;
10637;SDS011;47007;49.252;8.904;2023-06-22T02:42:48;6.90;;;6.30;;
10637;SDS011;47007;49.252;8.904;2023-06-22T02:43:29;8.93;;;6.53;;
10637;SDS011;47007;49.252;8.904;2023-06-22T02:44:11;6.90;;;6.40;;
10637;SDS011;47007;49.252;8.904;2023-06-22T02:44:53;6.68;;;6.00;;
10637;SDS011;47007;49.252;8.904;2023-06-22T02:45:35;7.35;;;6.75;;
10637;SDS011;47007;49.252;8.904;2023-06-22T02:46:17;6.28;;;5.78;;
10637;SDS011;47007;49.252;8.904;2023-06-22T02:46:59;6.78;;;6.18;;
10637;SDS011;47007;49.252;8.904;2023-06-22T02:47:41;6.28;;;5.68;;
10637;SDS011;47007;49.252;8.904;2023-06-22T02:48:23;6.18;;;5.68;;
10637;SDS011;47007;49.252;8.904;2023-06-22T02:49:08;6.45;;;5.95;;
10637;SDS011;47007;49.252;8.904;2023-06-22T02:49:50;6.32;;;5.82;;
10637;SDS011;47007;49.252;8.904;2023-06-22T02:50:32;6.43;;;5.80;;
10637;SDS011;47007;49.252;8.904;2023-06-22T02:51:14;6.13;;;5.70;;
10637;SDS011;47007;49.252;8.904;2023-06-22T02:51:56;6.05;;;5.55;;
10637;SDS011;47007;49.252;8.904;2023-06-22T02:52:39;6.13;;;5.53;;
10637;SDS011;47007;49.252;8.904;2023-06-22T02:53:21;6.85;;;6.05;;
10637;SDS011;47007;49.252;8.904;2023-06-22T02:54:03;6.30;;;5.80;;
10637;SDS011;47007;49.252;8.904;2023-06-22T02:54:45;6.30;;;5.68;;
10637;SDS011;47007;49.252;8.904;2023-06-22T02:55:28;5.97;;;5.47;;
10637;SDS011;47007;49.252;8.904;2023-06-22T02:56:12;6.78;;;6.18;;
10637;SDS011;47007;49.252;8.904;2023-06-22T02:56:54;7.07;;;6.47;;
10637;SDS011;47007;49.252;8.904;2023-06-22T02:57:36;6.40;;;5.75;;
10637;SDS011;47007;49.252;8.904;2023-06-22T02:58:25;6.00;;;5.50;;
10637;SDS011;47007;49.252;8.904;2023-06-22T02:59:07;5.93;;;5.25;;
10637;SDS011;47007;49.252;8.904;2023-06-22T02:59:52;6.43;;;5.85;;
10637;SDS011;47007;49.252;8.904;2023-06-22T03:00:34;6.45;;;5.72;;
10637;SDS011;47007;49.252;8.904;2023-06-22T03:01:15;6.40;;;5.90;;
10637;SDS011;47007;49.252;8.904;2023-06-22T03:02:01;6.60;;;6.00;;
10637;SDS011;47007;49.252;8.904;2023-06-22T03:02:46;11.55;;;7.88;;
10637;SDS011;47007;49.252;8.904;2023-06-22T03:03:29;8.82;;;6.93;;
10637;SDS011;47007;49.252;8.904;2023-06-22T03:04:12;11.55;;;7.75;;
10637;SDS011;47007;49.252;8.904;2023-06-22T03:04:55;7.50;;;6.70;;
10637;SDS011;47007;49.252;8.904;2023-06-22T03:05:36;13.65;;;7.03;;
10637;SDS011;47007;49.252;8.904;2023-06-22T03:06:22;8.73;;;6.05;;
10637;SDS011;47007;49.252;8.904;2023-06-22T03:07:05;6.28;;;5.68;;
10637;SDS011;47007;49.252;8.904;2023-06-22T03:07:48;5.88;;;5.45;;
10637;SDS011;47007;49.252;8.904;2023-06-22T03:08:30;6.50;;;5.90;;
10637;SDS011;47007;49.252;8.904;2023-06-22T03:09:12;6.05;;;5.55;;
10637;SDS011;47007;49.252;8.904;2023-06-22T03:09:53;6.13;;;5.38;;
10637;SDS011;47007;49.252;8.904;2023-06-22T03:10:35;5.70;;;5.30;;
10637;SDS011;47007;49.252;8.904;2023-06-22T03:11:17;6.00;;;5.50;;
10637;SDS011;47007;49.252;8.904;2023-06-22T03:11:59;5.55;;;5.15;;
10637;SDS011;47007;49.252;8.904;2023-06-22T03:12:48;6.38;;;5.78;;
10637;SDS011;47007;49.252;8.904;2023-06-22T03:13:30;6.13;;;5.53;;
10637;SDS011;47007;49.252;8.904;2023-06-22T03:14:12;6.13;;;5.60;;
10637;SDS011;47007;49.252;8.904;2023-06-22T03:14:53;5.93;;;5.43;;
10637;SDS011;47007;49.252;8.904;2023-06-22T03:15:35;6.18;;;5.65;;
10637;SDS011;47007;49.252;8.904;2023-06-22T03:16:18;6.65;;;6.00;;
10637;SDS011;47007;49.252;8.904;2023-06-22T03:17:03;7.13;;;6.00;;
10637;SDS011;47007;49.252;8.904;2023-06-22T03:17:46;6.72;;;6.03;;
10637;SDS011;47007;49.252;8.904;2023-06-22T03:18:28;7.35;;;5.75;;
10637;SDS011;47007;49.252;8.904;2023-06-22T03:19:10;6.18;;;5.68;;
10637;SDS011;47007;49.252;8.904;2023-06-22T03:19:52;6.18;;;5.68;;
10637;SDS011;47007;49.252;8.904;2023-06-22T03:20:34;6.88;;;5.85;;
10637;SDS011;47007;49.252;8.904;2023-06-22T03:21:15;6.65;;;6.15;;
10637;SDS011;47007;49.252;8.904;2023-06-22T03:21:59;6.88;;;6.18;;
10637;SDS011;47007;49.252;8.904;2023-06-22T03:22:41;7.95;;;6.32;;
10637;SDS011;47007;49.252;8.904;2023-06-22T03:23:23;6.72;;;5.97;;
10637;SDS011;47007;49.252;8.904;2023-06-22T03:24:06;6.70;;;5.97;;
10637;SDS011;47007;49.252;8.904;2023-06-22T03:24:48;6.50;;;5.90;;
10637;SDS011;47007;49.252;8.904;2023-06-22T03:25:30;6.30;;;5.80;;
10637;SDS011;47007;49.252;8.904;2023-06-22T03:26:12;6.93;;;6.32;;
10637;SDS011;47007;49.252;8.904;2023-06-22T03:26:54;6.30;;;5.80;;
10637;SDS011;47007;49.252;8.904;2023-06-22T03:27:36;5.78;;;5.30;;
10637;SDS011;47007;49.252;8.904;2023-06-22T03:28:21;5.95;;;5.45;;
10637;SDS011;47007;49.252;8.904;2023-06-22T03:29:03;5.90;;;5.40;;
10637;SDS011;47007;49.252;8.904;2023-06-22T03:29:45;6.60;;;6.05;;
10637;SDS011;47007;49.252;8.904;2023-06-22T03:30:27;6.63;;;6.05;;
10637;SDS011;47007;49.252;8.904;2023-06-22T03:31:09;6.40;;;5.88;;
10637;SDS011;47007;49.252;8.904;2023-06-22T03:31:54;6.65;;;5.70;;
10637;SDS011;47007;49.252;8.904;2023-06-22T03:32:38;6.13;;;5.60;;
10637;SDS011;47007;49.252;8.904;2023-06-22T03:33:20;6.40;;;5.90;;
10637;SDS011;47007;49.252;8.904;2023-06-22T03:34:03;6.28;;;5.75;;
10637;SDS011;47007;49.252;8.904;2023-06-22T03:34:48;5.65;;;5.15;;
10637;SDS011;47007;49.252;8.904;2023-06-22T03:35:31;6.22;;;5.63;;
10637;SDS011;47007;49.252;8.904;2023-06-22T03:36:12;6.20;;;5.60;;
10637;SDS011;47007;49.252;8.904;2023-06-22T03:36:54;6.13;;;5.63;;
10637;SDS011;47007;49.252;8.904;2023-06-22T03:37:36;6.38;;;5.78;;
10637;SDS011;47007;49.252;8.904;2023-06-22T03:38:19;6.15;;;5.45;;
10637;SDS011;47007;49.252;8.904;2023-06-22T03:39:01;6.07;;;5.57;;
10637;SDS011;47007;49.252;8.904;2023-06-22T03:39:43;6.55;;;5.97;;
10637;SDS011;47007;49.252;8.904;2023-06-22T03:40:25;5.88;;;5.45;;
10637;SDS011;47007;49.252;8.904;2023-06-22T03:41:07;6.82;;;6.13;;
10637;SDS011;47007;49.252;8.904;2023-06-22T03:41:52;6.00;;;5.40;;
10637;SDS011;47007;49.252;8.904;2023-06-22T03:42:34;6.40;;;5.90;;
10637;SDS011;47007;49.252;8.904;2023-06-22T03:43:17;6.78;;;5.50;;
10637;SDS011;47007;49.252;8.904;2023-06-22T03:43:59;7.40;;;5.80;;
10637;SDS011;47007;49.252;8.904;2023-06-22T03:44:40;6.30;;;5.80;;
10637;SDS011;47007;49.252;8.904;2023-06-22T03:45:22;6.32;;;5.72;;
10637;SDS011;47007;49.252;8.904;2023-06-22T03:46:04;5.97;;;5.47;;
10637;SDS011;47007;49.252;8.904;2023-06-22T03:46:46;5.80;;;5.32;;
10637;SDS011;47007;49.252;8.904;2023-06-22T03:47:28;5.28;;;4.88;;
10637;SDS011;47007;49.252;8.904;2023-06-22T03:48:12;6.22;;;5.72;;
10637;SDS011;47007;49.252;8.904;2023-06-22T03:48:54;5.75;;;5.25;;
10637;SDS011;47007;49.252;8.904;2023-06-22T03:49:35;6.13;;;5.63;;
10637;SDS011;47007;49.252;8.904;2023-06-22T03:50:17;6.45;;;5.95;;
10637;SDS011;47007;49.252;8.904;2023-06-22T03:51:01;5.70;;;5.20;;
10637;SDS011;47007;49.252;8.904;2023-06-22T03:51:47;6.40;;;5.85;;
10637;SDS011;47007;49.252;8.904;2023-06-22T03:52:29;5.90;;;5.40;;
10637;SDS011;47007;49.252;8.904;2023-06-22T03:53:11;5.75;;;5.25;;
10637;SDS011;47007;49.252;8.904;2023-06-22T03:53:54;5.43;;;5.03;;
10637;SDS011;47007;49.252;8.904;2023-06-22T03:54:36;6.10;;;5.70;;
10637;SDS011;47007;49.252;8.904;2023-06-22T03:55:19;6.15;;;5.55;;
10637;SDS011;47007;49.252;8.904;2023-06-22T03:56:01;6.30;;;5.68;;
10637;SDS011;47007;49.252;8.904;2023-06-22T03:56:43;5.97;;;5.43;;
10637;SDS011;47007;49.252;8.904;2023-06-22T03:57:25;6.45;;;5.85;;
10637;SDS011;47007;49.252;8.904;2023-06-22T03:58:09;6.07;;;5.57;;
10637;SDS011;47007;49.252;8.904;2023-06-22T03:58:50;5.95;;;5.45;;
10637;SDS011;47007;49.252;8.904;2023-06-22T03:59:32;6.15;;;5.65;;
10637;SDS011;47007;49.252;8.904;2023-06-22T04:00:14;6.05;;;5.50;;
10637;SDS011;47007;49.252;8.904;2023-06-22T04:00:57;6.55;;;6.03;;
10637;SDS011;47007;49.252;8.904;2023-06-22T04:01:39;6.53;;;5.93;;
10637;SDS011;47007;49.252;8.904;2023-06-22T04:02:20;7.25;;;5.43;;
10637;SDS011;47007;49.252;8.904;2023-06-22T04:03:02;6.20;;;5.65;;
10637;SDS011;47007;49.252;8.904;2023-06-22T04:03:44;6.57;;;5.97;;
10637;SDS011;47007;49.252;8.904;2023-06-22T04:04:26;7.43;;;5.93;;
10637;SDS011;47007;49.252;8.904;2023-06-22T04:05:09;8.07;;;5.97;;
10637;SDS011;47007;49.252;8.904;2023-06-22T04:05:51;7.00;;;5.80;;
10637;SDS011;47007;49.252;8.904;2023-06-22T04:06:33;5.70;;;5.30;;
10637;SDS011;47007;49.252;8.904;2023-06-22T04:07:16;6.53;;;6.05;;
10637;SDS011;47007;49.252;8.904;2023-06-22T04:07:59;5.82;;;5.32;;
10637;SDS011;47007;49.252;8.904;2023-06-22T04:08:41;6.53;;;5.88;;
10637;SDS011;47007;49.252;8.904;2023-06-22T04:09:23;6.50;;;5.80;;
10637;SDS011;47007;49.252;8.904;2023-06-22T04:10:05;7.68;;;5.80;;
10637;SDS011;47007;49.252;8.904;2023-06-22T04:10:47;6.25;;;5.65;;
10637;SDS011;47007;49.252;8.904;2023-06-22T04:11:29;5.80;;;5.30;;
10637;SDS011;47007;49.252;8.904;2023-06-22T04:12:11;6.40;;;5.43;;
10637;SDS011;47007;49.252;8.904;2023-06-22T04:12:52;5.68;;;5.25;;
10637;SDS011;47007;49.252;8.904;2023-06-22T04:13:35;5.90;;;5.50;;
10637;SDS011;47007;49.252;8.904;2023-06-22T04:14:17;7.88;;;6.35;;
10637;SDS011;47007;49.252;8.904;2023-06-22T04:15:00;6.32;;;5.82;;
10637;SDS011;47007;49.252;8.904;2023-06-22T04:15:41;6.38;;;5.78;;
10637;SDS011;47007;49.252;8.904;2023-06-22T04:16:23;6.30;;;5.60;;
10637;SDS011;47007;49.252;8.904;2023-06-22T04:17:05;6.43;;;5.82;;
10637;SDS011;47007;49.252;8.904;2023-06-22T04:17:47;6.00;;;5.50;;
10637;SDS011;47007;49.252;8.904;2023-06-22T04:18:30;5.88;;;5.38;;
10637;SDS011;47007;49.252;8.904;2023-06-22T04:19:12;7.32;;;5.78;;
10637;SDS011;47007;49.252;8.904;2023-06-22T04:19:58;6.80;;;6.00;;
10637;SDS011;47007;49.252;8.904;2023-06-22T04:20:39;5.68;;;5.28;;
10637;SDS011;47007;49.252;8.904;2023-06-22T04:21:22;6.05;;;5.55;;
10637;SDS011;47007;49.252;8.904;2023-06-22T04:22:04;6.47;;;5.80;;
10637;SDS011;47007;49.252;8.904;2023-06-22T04:22:48;7.22;;;5.78;;
10637;SDS011;47007;49.252;8.904;2023-06-22T04:23:30;6.68;;;6.07;;
10637;SDS011;47007;49.252;8.904;2023-06-22T04:24:12;7.13;;;6.38;;
10637;SDS011;47007;49.252;8.904;2023-06-22T04:24:54;7.78;;;7.00;;
10637;SDS011;47007;49.252;8.904;2023-06-22T04:25:37;11.50;;;6.20;;
10637;SDS011;47007;49.252;8.904;2023-06-22T04:26:18;6.75;;;6.05;;
10637;SDS011;47007;49.252;8.904;2023-06-22T04:27:02;7.32;;;6.60;;
10637;SDS011;47007;49.252;8.904;2023-06-22T04:27:45;6.60;;;5.90;;
10637;SDS011;47007;49.252;8.904;2023-06-22T04:28:27;10.25;;;6.38;;
10637;SDS011;47007;49.252;8.904;2023-06-22T04:29:09;8.55;;;6.50;;
10637;SDS011;47007;49.252;8.904;2023-06-22T04:29:51;6.85;;;6.22;;
10637;SDS011;47007;49.252;8.904;2023-06-22T04:30:33;6.97;;;6.30;;